sensor_id;sensor_type;location;lat;lon;timestamp;pressure;altitude;pressure_sealevel;temperature;humidity
62708;BME280;48769;51.624;5.886;2023-04-23T00:00:10;100651.22;;;9.81;100.00
62708;BME280;48769;51.624;5.886;2023-04-23T00:02:37;100644.22;;;9.80;100.00
62708;BME280;48769;51.624;5.886;2023-04-23T00:05:04;100645.06;;;9.81;100.00
62708;BME280;48769;51.624;5.886;2023-04-23T00:07:33;100641.81;;;9.76;100.00
62708;BME280;48769;51.624;5.886;2023-04-23T00:09:59;100647.94;;;9.76;100.00
62708;BME280;48769;51.624;5.886;2023-04-23T00:12:27;100641.88;;;9.74;100.00
62708;BME280;48769;51.624;5.886;2023-04-23T00:14:53;100648.25;;;9.70;100.00
62708;BME280;48769;51.624;5.886;2023-04-23T00:17:18;100633.44;;;9.68;100.00
62708;BME280;48769;51.624;5.886;2023-04-23T00:19:44;100625.47;;;9.69;100.00
62708;BME280;48769;51.624;5.886;2023-04-23T00:22:10;100630.75;;;9.69;100.00
62708;BME280;48769;51.624;5.886;2023-04-23T00:24:35;100635.31;;;9.66;100.00
62708;BME280;48769;51.624;5.886;2023-04-23T00:27:03;100632.75;;;9.64;100.00
62708;BME280;48769;51.624;5.886;2023-04-23T00:29:28;100631.91;;;9.64;100.00
62708;BME280;48769;51.624;5.886;2023-04-23T00:31:53;100631.91;;;9.64;100.00
62708;BME280;48769;51.624;5.886;2023-04-23T00:34:19;100612.81;;;9.58;100.00
62708;BME280;48769;51.624;5.886;2023-04-23T00:36:44;100622.50;;;9.58;100.00
62708;BME280;48769;51.624;5.886;2023-04-23T00:39:10;100607.72;;;9.55;100.00
62708;BME280;48769;51.624;5.886;2023-04-23T00:41:35;100613.00;;;9.55;100.00
62708;BME280;48769;51.624;5.886;2023-04-23T00:44:01;100613.16;;;9.52;100.00
62708;BME280;48769;51.624;5.886;2023-04-23T00:46:27;100606.94;;;9.53;100.00
62708;BME280;48769;51.624;5.886;2023-04-23T00:48:53;100609.72;;;9.50;100.00
62708;BME280;48769;51.624;5.886;2023-04-23T00:51:20;100599.31;;;9.47;100.00
62708;BME280;48769;51.624;5.886;2023-04-23T00:53:47;100604.75;;;9.44;100.00
62708;BME280;48769;51.624;5.886;2023-04-23T00:56:13;100597.94;;;9.40;100.00
62708;BME280;48769;51.624;5.886;2023-04-23T00:58:39;100599.78;;;9.38;100.00
62708;BME280;48769;51.624;5.886;2023-04-23T01:01:04;100593.75;;;9.36;100.00
62708;BME280;48769;51.624;5.886;2023-04-23T01:03:33;100586.84;;;9.33;100.00
62708;BME280;48769;51.624;5.886;2023-04-23T01:06:00;100587.84;;;9.31;100.00
62708;BME280;48769;51.624;5.886;2023-04-23T01:08:25;100588.09;;;9.26;100.00
62708;BME280;48769;51.624;5.886;2023-04-23T01:10:52;100581.34;;;9.21;100.00
62708;BME280;48769;51.624;5.886;2023-04-23T01:13:17;100574.19;;;9.23;100.00
62708;BME280;48769;51.624;5.886;2023-04-23T01:15:43;100574.19;;;9.23;100.00
62708;BME280;48769;51.624;5.886;2023-04-23T01:18:09;100582.03;;;9.24;100.00
62708;BME280;48769;51.624;5.886;2023-04-23T01:20:35;100576.75;;;9.24;100.00
62708;BME280;48769;51.624;5.886;2023-04-23T01:23:02;100572.34;;;9.25;100.00
62708;BME280;48769;51.624;5.886;2023-04-23T01:25:27;100566.22;;;9.24;100.00
62708;BME280;48769;51.624;5.886;2023-04-23T01:27:53;100574.19;;;9.23;100.00
62708;BME280;48769;51.624;5.886;2023-04-23T01:30:19;100568.91;;;9.23;100.00
62708;BME280;48769;51.624;5.886;2023-04-23T01:32:45;100574.72;;;9.29;100.00
62708;BME280;48769;51.624;5.886;2023-04-23T01:35:11;100562.28;;;9.33;100.00
62708;BME280;48769;51.624;5.886;2023-04-23T01:37:38;100570.03;;;9.36;100.00
62708;BME280;48769;51.624;5.886;2023-04-23T01:40:06;100564.56;;;9.39;100.00
62708;BME280;48769;51.624;5.886;2023-04-23T01:42:32;100564.41;;;9.42;100.00
62708;BME280;48769;51.624;5.886;2023-04-23T01:44:58;100562.56;;;9.44;100.00
62708;BME280;48769;51.624;5.886;2023-04-23T01:47:23;100568.53;;;9.48;100.00
62708;BME280;48769;51.624;5.886;2023-04-23T01:49:49;100562.41;;;9.47;100.00
62708;BME280;48769;51.624;5.886;2023-04-23T01:52:14;100555.28;;;9.49;100.00
62708;BME280;48769;51.624;5.886;2023-04-23T01:54:40;100564.78;;;9.52;100.00
62708;BME280;48769;51.624;5.886;2023-04-23T01:57:05;100562.78;;;9.57;100.00
62708;BME280;48769;51.624;5.886;2023-04-23T01:59:30;100565.19;;;9.62;100.00
62708;BME280;48769;51.624;5.886;2023-04-23T02:01:55;100561.47;;;9.66;100.00
62708;BME280;48769;51.624;5.886;2023-04-23T02:04:21;100564.00;;;9.67;100.00
62708;BME280;48769;51.624;5.886;2023-04-23T02:06:48;100558.84;;;9.66;100.00
62708;BME280;48769;51.624;5.886;2023-04-23T02:09:17;100559.75;;;9.65;100.00
62708;BME280;48769;51.624;5.886;2023-04-23T02:11:43;100565.91;;;9.65;100.00
62708;BME280;48769;51.624;5.886;2023-04-23T02:14:09;100561.47;;;9.66;100.00
62708;BME280;48769;51.624;5.886;2023-04-23T02:16:34;100552.72;;;9.65;100.00
62708;BME280;48769;51.624;5.886;2023-04-23T02:19:00;100547.66;;;9.60;100.00
62708;BME280;48769;51.624;5.886;2023-04-23T02:21:26;100548.66;;;9.58;100.00
62708;BME280;48769;51.624;5.886;2023-04-23T02:23:54;100554.78;;;9.58;100.00
62708;BME280;48769;51.624;5.886;2023-04-23T02:26:20;100547.97;;;9.54;100.00
62708;BME280;48769;51.624;5.886;2023-04-23T02:28:47;100544.50;;;9.54;100.00
62708;BME280;48769;51.624;5.886;2023-04-23T02:31:12;100546.28;;;9.53;100.00
62708;BME280;48769;51.624;5.886;2023-04-23T02:33:38;100542.78;;;9.53;100.00
62708;BME280;48769;51.624;5.886;2023-04-23T02:36:03;100543.78;;;9.50;100.00
62708;BME280;48769;51.624;5.886;2023-04-23T02:38:32;100543.88;;;9.49;100.00
62708;BME280;48769;51.624;5.886;2023-04-23T02:40:58;100541.56;;;9.43;100.00
62708;BME280;48769;51.624;5.886;2023-04-23T02:43:23;100547.84;;;9.40;100.00
62708;BME280;48769;51.624;5.886;2023-04-23T02:45:48;100541.94;;;9.35;100.00
62708;BME280;48769;51.624;5.886;2023-04-23T02:48:14;100533.44;;;9.30;100.00
62708;BME280;48769;51.624;5.886;2023-04-23T02:50:39;100536.06;;;9.30;100.00
62708;BME280;48769;51.624;5.886;2023-04-23T02:53:06;100530.16;;;9.25;100.00
62708;BME280;48769;51.624;5.886;2023-04-23T02:55:31;100535.75;;;9.19;100.00
62708;BME280;48769;51.624;5.886;2023-04-23T02:57:58;100529.09;;;9.11;100.00
62708;BME280;48769;51.624;5.886;2023-04-23T03:00:24;100524.97;;;9.06;100.00
62708;BME280;48769;51.624;5.886;2023-04-23T03:02:50;100529.78;;;8.98;100.00
62708;BME280;48769;51.624;5.886;2023-04-23T03:05:15;100529.00;;;8.96;100.00
62708;BME280;48769;51.624;5.886;2023-04-23T03:07:41;100537.00;;;8.94;100.00
62708;BME280;48769;51.624;5.886;2023-04-23T03:10:07;100527.31;;;8.95;100.00
62708;BME280;48769;51.624;5.886;2023-04-23T03:12:32;100525.66;;;8.92;100.00
62708;BME280;48769;51.624;5.886;2023-04-23T03:14:58;100534.41;;;8.93;100.00
62708;BME280;48769;51.624;5.886;2023-04-23T03:17:23;100533.41;;;8.95;100.00
62708;BME280;48769;51.624;5.886;2023-04-23T03:19:48;100536.69;;;9.00;100.00
62708;BME280;48769;51.624;5.886;2023-04-23T03:22:13;100533.81;;;9.05;100.00
62708;BME280;48769;51.624;5.886;2023-04-23T03:24:41;100521.88;;;8.98;100.00
62708;BME280;48769;51.624;5.886;2023-04-23T03:27:07;100524.56;;;8.96;100.00
62708;BME280;48769;51.624;5.886;2023-04-23T03:29:32;100523.72;;;8.96;100.00
62708;BME280;48769;51.624;5.886;2023-04-23T03:31:57;100523.81;;;8.94;100.00
62708;BME280;48769;51.624;5.886;2023-04-23T03:34:23;100517.91;;;8.89;100.00
62708;BME280;48769;51.624;5.886;2023-04-23T03:36:48;100512.66;;;8.89;100.00
62708;BME280;48769;51.624;5.886;2023-04-23T03:39:15;100514.72;;;8.82;100.00
62708;BME280;48769;51.624;5.886;2023-04-23T03:41:40;100511.25;;;8.82;100.00
62708;BME280;48769;51.624;5.886;2023-04-23T03:44:05;100512.94;;;8.83;100.00
62708;BME280;48769;51.624;5.886;2023-04-23T03:46:31;100511.41;;;8.79;100.00
62708;BME280;48769;51.624;5.886;2023-04-23T03:48:56;100511.41;;;8.79;100.00
62708;BME280;48769;51.624;5.886;2023-04-23T03:51:21;100513.09;;;8.80;100.00
62708;BME280;48769;51.624;5.886;2023-04-23T03:53:48;100513.25;;;8.77;100.00
62708;BME280;48769;51.624;5.886;2023-04-23T03:56:13;100507.84;;;8.80;100.00
62708;BME280;48769;51.624;5.886;2023-04-23T03:58:38;100503.50;;;8.79;100.00
62708;BME280;48769;51.624;5.886;2023-04-23T04:01:04;100505.19;;;8.80;100.00
62708;BME280;48769;51.624;5.886;2023-04-23T04:03:29;100510.31;;;8.83;100.00
62708;BME280;48769;51.624;5.886;2023-04-23T04:05:54;100504.91;;;8.86;100.00
62708;BME280;48769;51.624;5.886;2023-04-23T04:08:20;100501.13;;;8.92;100.00
62708;BME280;48769;51.624;5.886;2023-04-23T04:10:46;100506.06;;;8.98;100.00
62708;BME280;48769;51.624;5.886;2023-04-23T04:13:12;100508.41;;;9.04;100.00
62708;BME280;48769;51.624;5.886;2023-04-23T04:15:37;100504.69;;;9.08;100.00
62708;BME280;48769;51.624;5.886;2023-04-23T04:18:02;100507.22;;;9.09;100.00
62708;BME280;48769;51.624;5.886;2023-04-23T04:20:28;100500.88;;;9.13;100.00
62708;BME280;48769;51.624;5.886;2023-04-23T04:22:54;100505.91;;;9.18;100.00
62708;BME280;48769;51.624;5.886;2023-04-23T04:25:19;100496.22;;;9.19;100.00
62708;BME280;48769;51.624;5.886;2023-04-23T04:27:46;100507.59;;;9.19;100.00
62708;BME280;48769;51.624;5.886;2023-04-23T04:30:13;100500.38;;;9.23;100.00
62708;BME280;48769;51.624;5.886;2023-04-23T04:32:38;100499.22;;;9.28;100.00
62708;BME280;48769;51.624;5.886;2023-04-23T04:35:05;100503.66;;;9.28;100.00
62708;BME280;48769;51.624;5.886;2023-04-23T04:37:33;100501.81;;;9.30;100.00
62708;BME280;48769;51.624;5.886;2023-04-23T04:39:58;100508.63;;;9.34;100.00
62708;BME280;48769;51.624;5.886;2023-04-23T04:42:25;100510.16;;;9.38;100.00
62708;BME280;48769;51.624;5.886;2023-04-23T04:44:51;100514.25;;;9.44;100.00
62708;BME280;48769;51.624;5.886;2023-04-23T04:47:17;100511.22;;;9.51;100.00
62708;BME280;48769;51.624;5.886;2023-04-23T04:49:43;100515.47;;;9.54;100.00
62708;BME280;48769;51.624;5.886;2023-04-23T04:52:09;100514.47;;;9.56;100.00
62708;BME280;48769;51.624;5.886;2023-04-23T04:54:34;100527.56;;;9.58;100.00
62708;BME280;48769;51.624;5.886;2023-04-23T04:56:59;100524.19;;;9.56;100.00
62708;BME280;48769;51.624;5.886;2023-04-23T04:59:26;100509.34;;;9.53;100.00
62708;BME280;48769;51.624;5.886;2023-04-23T05:01:51;100521.59;;;9.54;100.00
62708;BME280;48769;51.624;5.886;2023-04-23T05:04:17;100516.31;;;9.54;100.00
62708;BME280;48769;51.624;5.886;2023-04-23T05:06:42;100509.03;;;9.59;100.00
62708;BME280;48769;51.624;5.886;2023-04-23T05:09:08;100509.03;;;9.59;100.00
62708;BME280;48769;51.624;5.886;2023-04-23T05:11:34;100503.59;;;9.63;100.00
62708;BME280;48769;51.624;5.886;2023-04-23T05:14:00;100500.03;;;9.64;100.00
62708;BME280;48769;51.624;5.886;2023-04-23T05:16:25;100504.28;;;9.66;100.00
62708;BME280;48769;51.624;5.886;2023-04-23T05:18:50;100510.50;;;9.65;100.00
62708;BME280;48769;51.624;5.886;2023-04-23T05:21:16;100513.75;;;9.70;100.00
62708;BME280;48769;51.624;5.886;2023-04-23T05:23:41;100518.75;;;9.75;100.00
62708;BME280;48769;51.624;5.886;2023-04-23T05:26:07;100516.09;;;9.92;100.00
62708;BME280;48769;51.624;5.886;2023-04-23T05:28:32;100524.41;;;10.00;100.00
62708;BME280;48769;51.624;5.886;2023-04-23T05:30:57;100518.31;;;10.16;100.00
62708;BME280;48769;51.624;5.886;2023-04-23T05:33:23;100523.34;;;10.20;100.00
62708;BME280;48769;51.624;5.886;2023-04-23T05:35:50;100522.00;;;10.29;100.00
62708;BME280;48769;51.624;5.886;2023-04-23T05:38:16;100512.97;;;10.33;100.00
62708;BME280;48769;51.624;5.886;2023-04-23T05:40:41;100509.81;;;10.42;100.00
62708;BME280;48769;51.624;5.886;2023-04-23T05:43:06;100514.41;;;10.70;100.00
62708;BME280;48769;51.624;5.886;2023-04-23T05:45:32;100519.50;;;10.73;100.00
62708;BME280;48769;51.624;5.886;2023-04-23T05:47:57;100518.69;;;11.17;100.00
62708;BME280;48769;51.624;5.886;2023-04-23T05:50:22;100521.63;;;11.57;100.00
62708;BME280;48769;51.624;5.886;2023-04-23T05:52:48;100518.69;;;11.76;100.00
62708;BME280;48769;51.624;5.886;2023-04-23T05:55:13;100520.78;;;11.71;100.00
62708;BME280;48769;51.624;5.886;2023-04-23T05:57:40;100521.50;;;11.73;100.00
62708;BME280;48769;51.624;5.886;2023-04-23T06:00:06;100524.75;;;11.78;100.00
62708;BME280;48769;51.624;5.886;2023-04-23T06:02:36;100519.47;;;11.92;100.00
62708;BME280;48769;51.624;5.886;2023-04-23T06:05:01;100514.34;;;12.04;100.00
62708;BME280;48769;51.624;5.886;2023-04-23T06:07:26;100511.31;;;11.96;100.00
62708;BME280;48769;51.624;5.886;2023-04-23T06:09:52;100512.22;;;11.96;100.00
62708;BME280;48769;51.624;5.886;2023-04-23T06:12:17;100509.59;;;12.09;100.00
62708;BME280;48769;51.624;5.886;2023-04-23T06:14:42;100513.41;;;12.19;100.00
62708;BME280;48769;51.624;5.886;2023-04-23T06:17:08;100510.09;;;12.15;100.00
62708;BME280;48769;51.624;5.886;2023-04-23T06:19:33;100515.25;;;12.31;100.00
62708;BME280;48769;51.624;5.886;2023-04-23T06:21:58;100513.81;;;12.67;100.00
62708;BME280;48769;51.624;5.886;2023-04-23T06:24:24;100517.91;;;12.85;100.00
62708;BME280;48769;51.624;5.886;2023-04-23T06:26:49;100517.22;;;12.69;100.00
62708;BME280;48769;51.624;5.886;2023-04-23T06:29:15;100517.41;;;12.66;100.00
62708;BME280;48769;51.624;5.886;2023-04-23T06:31:40;100507.41;;;12.57;100.00
62708;BME280;48769;51.624;5.886;2023-04-23T06:34:06;100510.72;;;12.60;100.00
62708;BME280;48769;51.624;5.886;2023-04-23T06:36:31;100507.66;;;12.67;100.00
62708;BME280;48769;51.624;5.886;2023-04-23T06:38:57;100502.38;;;12.67;100.00
62708;BME280;48769;51.624;5.886;2023-04-23T06:41:22;100501.97;;;12.73;100.00
62708;BME280;48769;51.624;5.886;2023-04-23T06:43:47;100496.22;;;12.66;100.00
62708;BME280;48769;51.624;5.886;2023-04-23T06:46:13;100499.97;;;12.76;100.00
62708;BME280;48769;51.624;5.886;2023-04-23T06:48:39;100491.59;;;12.82;100.00
62708;BME280;48769;51.624;5.886;2023-04-23T06:51:04;100478.28;;;12.97;100.00
62708;BME280;48769;51.624;5.886;2023-04-23T06:53:30;100483.72;;;13.08;100.00
62708;BME280;48769;51.624;5.886;2023-04-23T06:55:56;100482.75;;;13.22;100.00
62708;BME280;48769;51.624;5.886;2023-04-23T06:58:21;100487.69;;;13.28;100.00
62708;BME280;48769;51.624;5.886;2023-04-23T07:00:51;100478.34;;;13.35;100.00
62708;BME280;48769;51.624;5.886;2023-04-23T07:03:17;100479.19;;;13.48;100.00
62708;BME280;48769;51.624;5.886;2023-04-23T07:05:43;100487.16;;;13.61;100.00
62708;BME280;48769;51.624;5.886;2023-04-23T07:08:08;100481.53;;;13.78;100.00
62708;BME280;48769;51.624;5.886;2023-04-23T07:10:33;100483.38;;;14.02;100.00
62708;BME280;48769;51.624;5.886;2023-04-23T07:12:59;100469.84;;;14.42;100.00
62708;BME280;48769;51.624;5.886;2023-04-23T07:15:24;100472.81;;;14.50;100.00
62708;BME280;48769;51.624;5.886;2023-04-23T07:17:50;100465.34;;;14.55;100.00
62708;BME280;48769;51.624;5.886;2023-04-23T07:20:18;100469.53;;;14.70;100.00
62708;BME280;48769;51.624;5.886;2023-04-23T07:22:45;100454.59;;;14.81;100.00
62708;BME280;48769;51.624;5.886;2023-04-23T07:25:11;100454.72;;;15.37;100.00
62708;BME280;48769;51.624;5.886;2023-04-23T07:27:36;100457.91;;;16.85;100.00
62708;BME280;48769;51.624;5.886;2023-04-23T07:30:02;100454.88;;;18.03;100.00
62708;BME280;48769;51.624;5.886;2023-04-23T07:32:27;100441.31;;;19.12;100.00
62708;BME280;48769;51.624;5.886;2023-04-23T07:34:54;100429.97;;;20.03;100.00
62708;BME280;48769;51.624;5.886;2023-04-23T07:37:20;100419.97;;;20.41;100.00
62708;BME280;48769;51.624;5.886;2023-04-23T07:39:46;100421.38;;;20.63;100.00
62708;BME280;48769;51.624;5.886;2023-04-23T07:42:12;100437.19;;;21.10;100.00
62708;BME280;48769;51.624;5.886;2023-04-23T07:44:37;100413.72;;;21.38;100.00
62708;BME280;48769;51.624;5.886;2023-04-23T07:47:03;100422.88;;;21.53;100.00
62708;BME280;48769;51.624;5.886;2023-04-23T07:49:28;100421.53;;;21.91;100.00
62708;BME280;48769;51.624;5.886;2023-04-23T07:51:53;100419.50;;;21.51;100.00
62708;BME280;48769;51.624;5.886;2023-04-23T07:54:18;100420.50;;;22.43;100.00
62708;BME280;48769;51.624;5.886;2023-04-23T07:56:44;100405.72;;;22.47;100.00
62708;BME280;48769;51.624;5.886;2023-04-23T07:59:09;100406.34;;;22.25;100.00
62708;BME280;48769;51.624;5.886;2023-04-23T08:01:35;100410.88;;;21.74;100.00
62708;BME280;48769;51.624;5.886;2023-04-23T08:04:00;100403.66;;;21.40;100.00
62708;BME280;48769;51.624;5.886;2023-04-23T08:06:27;100411.44;;;20.55;100.00
62708;BME280;48769;51.624;5.886;2023-04-23T08:08:54;100415.78;;;19.93;100.00
62708;BME280;48769;51.624;5.886;2023-04-23T08:11:20;100405.97;;;19.83;100.00
62708;BME280;48769;51.624;5.886;2023-04-23T08:13:45;100411.13;;;19.67;100.00
62708;BME280;48769;51.624;5.886;2023-04-23T08:16:11;100415.66;;;19.57;100.00
62708;BME280;48769;51.624;5.886;2023-04-23T08:18:36;100417.53;;;18.61;100.00
62708;BME280;48769;51.624;5.886;2023-04-23T08:21:02;100419.78;;;18.36;100.00
62708;BME280;48769;51.624;5.886;2023-04-23T08:23:27;100420.00;;;17.94;100.00
62708;BME280;48769;51.624;5.886;2023-04-23T08:25:52;100422.47;;;17.86;100.00
62708;BME280;48769;51.624;5.886;2023-04-23T08:28:18;100424.34;;;17.95;100.00
62708;BME280;48769;51.624;5.886;2023-04-23T08:30:44;100419.03;;;18.05;100.00
62708;BME280;48769;51.624;5.886;2023-04-23T08:33:10;100414.91;;;17.91;100.00
62708;BME280;48769;51.624;5.886;2023-04-23T08:35:36;100412.91;;;17.84;100.00
62708;BME280;48769;51.624;5.886;2023-04-23T08:38:01;100408.63;;;18.12;100.00
62708;BME280;48769;51.624;5.886;2023-04-23T08:40:30;100407.63;;;18.13;100.00
62708;BME280;48769;51.624;5.886;2023-04-23T08:42:57;100420.59;;;18.27;100.00
62708;BME280;48769;51.624;5.886;2023-04-23T08:45:25;100422.03;;;18.51;100.00
62708;BME280;48769;51.624;5.886;2023-04-23T08:47:51;100405.69;;;18.54;100.00
62708;BME280;48769;51.624;5.886;2023-04-23T08:50:17;100412.59;;;18.47;100.00
62708;BME280;48769;51.624;5.886;2023-04-23T08:52:54;100394.72;;;18.57;100.00
62708;BME280;48769;51.624;5.886;2023-04-23T08:55:21;100405.97;;;18.51;100.00
62708;BME280;48769;51.624;5.886;2023-04-23T08:57:47;100394.84;;;18.45;100.00
62708;BME280;48769;51.624;5.886;2023-04-23T09:00:15;100398.38;;;18.56;100.00
62708;BME280;48769;51.624;5.886;2023-04-23T09:02:43;100390.50;;;18.74;100.00
62708;BME280;48769;51.624;5.886;2023-04-23T09:05:09;100396.56;;;18.85;94.04
62708;BME280;48769;51.624;5.886;2023-04-23T09:07:35;100399.94;;;18.78;94.66
62708;BME280;48769;51.624;5.886;2023-04-23T09:10:04;100399.22;;;18.85;96.10
62708;BME280;48769;51.624;5.886;2023-04-23T09:12:30;100392.44;;;18.72;98.78
62708;BME280;48769;51.624;5.886;2023-04-23T09:14:56;100375.44;;;18.63;96.36
62708;BME280;48769;51.624;5.886;2023-04-23T09:17:22;100384.03;;;18.76;95.37
62708;BME280;48769;51.624;5.886;2023-04-23T09:19:49;100376.09;;;18.65;94.31
62708;BME280;48769;51.624;5.886;2023-04-23T09:25:06;100388.09;;;18.71;97.31
62708;BME280;48769;51.624;5.886;2023-04-23T09:27:31;100377.84;;;18.76;93.44
62708;BME280;48769;51.624;5.886;2023-04-23T09:29:57;100374.44;;;18.74;88.94
62708;BME280;48769;51.624;5.886;2023-04-23T09:32:34;100385.00;;;18.85;90.36
62708;BME280;48769;51.624;5.886;2023-04-23T09:35:07;100376.34;;;19.01;89.64
62708;BME280;48769;51.624;5.886;2023-04-23T09:37:33;100363.09;;;19.09;86.02
62708;BME280;48769;51.624;5.886;2023-04-23T09:40:00;100357.06;;;19.99;82.27
62708;BME280;48769;51.624;5.886;2023-04-23T09:42:27;100363.78;;;20.75;81.21
62708;BME280;48769;51.624;5.886;2023-04-23T09:45:06;100352.22;;;20.39;78.96
62708;BME280;48769;51.624;5.886;2023-04-23T09:47:33;100361.88;;;20.67;79.51
62708;BME280;48769;51.624;5.886;2023-04-23T09:49:59;100350.03;;;20.78;78.87
62708;BME280;48769;51.624;5.886;2023-04-23T09:52:24;100356.22;;;20.96;77.73
62708;BME280;48769;51.624;5.886;2023-04-23T09:54:50;100342.50;;;20.38;72.48
62708;BME280;48769;51.624;5.886;2023-04-23T09:57:15;100337.03;;;19.94;74.06
62708;BME280;48769;51.624;5.886;2023-04-23T09:59:41;100325.91;;;20.42;71.67
62708;BME280;48769;51.624;5.886;2023-04-23T10:02:07;100334.84;;;20.87;74.85
62708;BME280;48769;51.624;5.886;2023-04-23T10:04:34;100327.84;;;21.02;70.65
62708;BME280;48769;51.624;5.886;2023-04-23T10:07:01;100323.91;;;21.14;71.04
62708;BME280;48769;51.624;5.886;2023-04-23T10:09:28;100326.06;;;21.11;71.81
62708;BME280;48769;51.624;5.886;2023-04-23T10:11:58;100316.34;;;20.40;69.65
62708;BME280;48769;51.624;5.886;2023-04-23T10:14:25;100323.38;;;19.69;68.87
62708;BME280;48769;51.624;5.886;2023-04-23T10:16:52;100334.28;;;19.30;73.09
62708;BME280;48769;51.624;5.886;2023-04-23T10:19:22;100318.25;;;19.21;68.80
62708;BME280;48769;51.624;5.886;2023-04-23T10:21:56;100328.69;;;19.14;68.13
62708;BME280;48769;51.624;5.886;2023-04-23T10:24:25;100334.06;;;19.04;69.41
62708;BME280;48769;51.624;5.886;2023-04-23T10:26:55;100327.06;;;18.94;69.67
62708;BME280;48769;51.624;5.886;2023-04-23T10:29:26;100325.84;;;18.78;70.56
62708;BME280;48769;51.624;5.886;2023-04-23T10:31:53;100332.06;;;18.79;73.10
62708;BME280;48769;51.624;5.886;2023-04-23T10:34:19;100339.91;;;18.90;73.02
62708;BME280;48769;51.624;5.886;2023-04-23T10:36:44;100322.81;;;19.01;70.92
62708;BME280;48769;51.624;5.886;2023-04-23T10:39:11;100323.00;;;18.89;71.61
62708;BME280;48769;51.624;5.886;2023-04-23T10:41:38;100324.28;;;18.85;66.48
62708;BME280;48769;51.624;5.886;2023-04-23T10:44:05;100315.84;;;18.71;66.21
62708;BME280;48769;51.624;5.886;2023-04-23T10:46:32;100307.69;;;18.62;66.53
62708;BME280;48769;51.624;5.886;2023-04-23T10:49:14;100310.69;;;18.50;68.05
62708;BME280;48769;51.624;5.886;2023-04-23T10:51:41;100314.34;;;18.29;69.67
62708;BME280;48769;51.624;5.886;2023-04-23T10:54:08;100309.44;;;18.34;68.89
62708;BME280;48769;51.624;5.886;2023-04-23T10:56:38;100305.47;;;18.38;67.08
62708;BME280;48769;51.624;5.886;2023-04-23T10:59:19;100297.72;;;18.45;69.76
62708;BME280;48769;51.624;5.886;2023-04-23T11:01:46;100301.66;;;18.60;68.47
62708;BME280;48769;51.624;5.886;2023-04-23T11:04:23;100301.75;;;18.78;67.81
62708;BME280;48769;51.624;5.886;2023-04-23T11:06:51;100299.75;;;18.90;69.03
62708;BME280;48769;51.624;5.886;2023-04-23T11:11:59;100296.16;;;19.09;67.25
62708;BME280;48769;51.624;5.886;2023-04-23T11:17:01;100284.41;;;19.20;67.61
62708;BME280;48769;51.624;5.886;2023-04-23T11:19:27;100277.81;;;19.14;66.61
62708;BME280;48769;51.624;5.886;2023-04-23T11:22:13;100270.97;;;19.29;67.64
62708;BME280;48769;51.624;5.886;2023-04-23T11:24:40;100269.69;;;19.79;69.32
62708;BME280;48769;51.624;5.886;2023-04-23T11:27:12;100263.03;;;20.01;65.95
62708;BME280;48769;51.624;5.886;2023-04-23T11:29:39;100254.41;;;19.89;65.51
62708;BME280;48769;51.624;5.886;2023-04-23T11:32:05;100264.31;;;19.61;66.39
62708;BME280;48769;51.624;5.886;2023-04-23T11:34:36;100256.03;;;19.54;64.88
62708;BME280;48769;51.624;5.886;2023-04-23T11:37:01;100249.66;;;19.37;64.51
62708;BME280;48769;51.624;5.886;2023-04-23T11:39:27;100249.66;;;19.37;64.07
62708;BME280;48769;51.624;5.886;2023-04-23T11:41:53;100252.59;;;19.44;66.36
62708;BME280;48769;51.624;5.886;2023-04-23T11:44:19;100235.53;;;19.63;63.48
62708;BME280;48769;51.624;5.886;2023-04-23T11:46:46;100229.91;;;19.66;62.55
62708;BME280;48769;51.624;5.886;2023-04-23T11:49:12;100220.16;;;19.65;62.14
62708;BME280;48769;51.624;5.886;2023-04-23T11:51:44;100226.75;;;19.71;65.05
62708;BME280;48769;51.624;5.886;2023-04-23T11:54:11;100218.06;;;19.95;62.84
62708;BME280;48769;51.624;5.886;2023-04-23T11:56:38;100216.97;;;19.79;63.08
62708;BME280;48769;51.624;5.886;2023-04-23T11:59:04;100216.00;;;19.89;62.61
62708;BME280;48769;51.624;5.886;2023-04-23T12:01:40;100209.59;;;19.81;62.51
62708;BME280;48769;51.624;5.886;2023-04-23T12:04:26;100198.31;;;19.60;61.93
62708;BME280;48769;51.624;5.886;2023-04-23T12:06:53;100192.81;;;19.61;62.11
62708;BME280;48769;51.624;5.886;2023-04-23T12:09:21;100194.72;;;19.69;62.12
62708;BME280;48769;51.624;5.886;2023-04-23T12:11:47;100195.03;;;20.02;64.49
62708;BME280;48769;51.624;5.886;2023-04-23T12:14:15;100186.41;;;20.68;62.40
62708;BME280;48769;51.624;5.886;2023-04-23T12:16:43;100163.75;;;21.13;55.86
62708;BME280;48769;51.624;5.886;2023-04-23T12:19:19;100160.16;;;20.88;58.81
62708;BME280;48769;51.624;5.886;2023-04-23T12:21:55;100160.56;;;21.18;57.25
62708;BME280;48769;51.624;5.886;2023-04-23T12:24:25;100162.38;;;20.93;58.58
62708;BME280;48769;51.624;5.886;2023-04-23T12:26:58;100154.88;;;21.21;58.42
62708;BME280;48769;51.624;5.886;2023-04-23T12:29:25;100144.72;;;21.49;56.60
62708;BME280;48769;51.624;5.886;2023-04-23T12:31:52;100144.72;;;21.49;57.50
62708;BME280;48769;51.624;5.886;2023-04-23T12:34:18;100135.91;;;21.31;54.80
62708;BME280;48769;51.624;5.886;2023-04-23T12:36:47;100142.13;;;21.23;57.49
62708;BME280;48769;51.624;5.886;2023-04-23T12:39:23;100133.22;;;21.14;54.78
62708;BME280;48769;51.624;5.886;2023-04-23T12:42:07;100114.41;;;21.06;55.21
62708;BME280;48769;51.624;5.886;2023-04-23T12:44:36;100118.88;;;20.89;54.29
62708;BME280;48769;51.624;5.886;2023-04-23T12:47:07;100115.19;;;20.90;55.50
62708;BME280;48769;51.624;5.886;2023-04-23T12:49:35;100112.03;;;21.03;56.75
62708;BME280;48769;51.624;5.886;2023-04-23T12:52:02;100091.91;;;21.15;54.42